Time;durP1;ratioP1;P1;durP2;ratioP2;P2;SDS_P1;SDS_P2;PMS_P1;PMS_P2;Temp;Humidity;BMP_temperature;BMP_pressure;BME280_temperature;BME280_humidity;BME280_pressure;Samples;Min_cycle;Max_cycle;Signal;HPM_P1;HPM_P2
2022/03/03 00:02:14;;;;;;;10.82;6.95;;;;;10.10;101907.00;;;;5048181;28;20208;-78
2022/03/03 00:04:42;;;;;;;11.30;6.97;;;;;10.20;101907.00;;;;5048018;28;20606;-78
2022/03/03 00:07:09;;;;;;;10.40;6.38;;;;;10.10;101902.00;;;;5048245;28;20199;-78
2022/03/03 00:09:36;;;;;;;11.93;7.10;;;;;10.10;101898.00;;;;5048411;28;20204;-78
2022/03/03 00:12:04;;;;;;;10.55;7.25;;;;;10.10;101895.00;;;;5048524;28;20222;-78
2022/03/03 00:14:32;;;;;;;10.65;6.75;;;;;10.10;101892.00;;;;5048965;28;20207;-78
2022/03/03 00:16:59;;;;;;;11.85;7.63;;;;;10.10;101902.00;;;;5048282;28;20206;-78
2022/03/03 00:19:27;;;;;;;13.43;6.82;;;;;10.00;101901.00;;;;5048525;28;20700;-78
2022/03/03 00:21:55;;;;;;;9.75;7.10;;;;;10.00;101903.00;;;;5048545;28;20204;-79
2022/03/03 00:24:22;;;;;;;11.27;7.10;;;;;10.00;101898.00;;;;5048849;28;20191;-78
2022/03/03 00:26:49;;;;;;;11.05;6.82;;;;;10.00;101897.00;;;;5047810;28;20603;-79
2022/03/03 00:29:17;;;;;;;9.50;6.28;;;;;10.00;101890.00;;;;5048226;28;20639;-78
2022/03/03 00:31:44;;;;;;;10.90;6.60;;;;;10.00;101890.00;;;;5047944;28;20230;-79
2022/03/03 00:34:11;;;;;;;10.85;6.95;;;;;10.00;101878.00;;;;5054362;28;20203;-79
2022/03/03 00:36:40;;;;;;;10.98;6.32;;;;;9.90;101874.00;;;;5054377;28;20261;-79
2022/03/03 00:39:07;;;;;;;12.93;7.05;;;;;10.00;101872.00;;;;5054738;28;20204;-79
2022/03/03 00:41:35;;;;;;;12.00;7.60;;;;;9.90;101863.00;;;;5054815;28;20211;-78
2022/03/03 00:44:02;;;;;;;9.80;6.88;;;;;9.90;101878.00;;;;5054604;28;20630;-79
2022/03/03 00:46:29;;;;;;;10.43;6.55;;;;;9.90;101870.00;;;;5054645;28;20669;-79
2022/03/03 00:48:57;;;;;;;12.45;7.68;;;;;9.90;101882.00;;;;5065101;28;20202;-79
2022/03/03 00:51:24;;;;;;;9.02;6.03;;;;;9.90;101883.00;;;;5055539;28;20720;-79
2022/03/03 00:53:53;;;;;;;12.00;7.28;;;;;9.90;101878.00;;;;5054622;28;20633;-79
2022/03/03 00:56:20;;;;;;;11.05;7.18;;;;;9.90;101876.00;;;;5054779;28;20203;-79
2022/03/03 00:58:47;;;;;;;11.05;6.88;;;;;9.90;101879.00;;;;5054404;28;20662;-79
2022/03/03 01:01:15;;;;;;;9.07;5.80;;;;;9.90;101877.00;;;;5034151;28;20587;-79
2022/03/03 01:03:42;;;;;;;10.70;6.30;;;;;9.90;101873.00;;;;5034781;28;20209;-79
2022/03/03 01:06:11;;;;;;;10.98;6.93;;;;;9.90;101862.00;;;;5034633;28;20204;-78
2022/03/03 01:08:38;;;;;;;12.75;7.00;;;;;9.90;101865.00;;;;5034642;28;20254;-79
2022/03/03 01:11:08;;;;;;;9.60;6.32;;;;;9.80;101864.00;;;;5034442;28;20208;-78
2022/03/03 01:13:35;;;;;;;11.07;6.68;;;;;9.80;101862.00;;;;5034360;28;20716;-79
2022/03/03 01:16:02;;;;;;;9.00;5.93;;;;;9.80;101852.00;;;;5036924;28;20219;-79
2022/03/03 01:18:30;;;;;;;10.25;6.22;;;;;9.80;101856.00;;;;5054112;28;20223;-79
2022/03/03 01:20:57;;;;;;;12.38;6.72;;;;;9.80;101852.00;;;;5054338;28;20669;-79
2022/03/03 01:23:24;;;;;;;12.60;6.65;;;;;9.80;101850.00;;;;5054583;28;20236;-79
2022/03/03 01:25:52;;;;;;;9.98;6.70;;;;;9.80;101855.00;;;;5054221;28;20206;-78
2022/03/03 01:28:20;;;;;;;10.85;6.70;;;;;9.80;101849.00;;;;5053759;28;20199;-79
2022/03/03 01:30:48;;;;;;;9.43;6.07;;;;;9.80;101838.00;;;;5054965;28;20723;-79
2022/03/03 01:33:15;;;;;;;11.00;6.18;;;;;9.70;101838.00;;;;5053997;28;20235;-79
2022/03/03 01:35:42;;;;;;;12.20;6.82;;;;;9.70;101836.00;;;;5054141;28;20199;-79
2022/03/03 01:38:10;;;;;;;9.93;6.43;;;;;9.70;101836.00;;;;5054465;28;20207;-79
2022/03/03 01:40:38;;;;;;;10.07;7.03;;;;;9.60;101837.00;;;;5053855;28;20214;-79
2022/03/03 01:43:05;;;;;;;11.05;6.93;;;;;9.60;101830.00;;;;5054253;28;20210;-79
2022/03/03 01:45:34;;;;;;;8.48;5.93;;;;;9.60;101826.00;;;;5050373;28;20654;-78
2022/03/03 01:48:01;;;;;;;7.38;5.57;;;;;9.50;101822.00;;;;5050241;28;20737;-79
2022/03/03 01:50:29;;;;;;;9.55;6.13;;;;;9.50;101821.00;;;;5051200;28;20199;-79
2022/03/03 01:52:56;;;;;;;9.48;6.68;;;;;9.50;101818.00;;;;5050657;28;20231;-79
2022/03/03 01:55:23;;;;;;;10.55;6.20;;;;;9.40;101823.00;;;;5063351;28;20202;-80
2022/03/03 01:57:51;;;;;;;9.68;6.57;;;;;9.40;101818.00;;;;5051077;28;20682;-79
2022/03/03 02:00:19;;;;;;;12.50;6.45;;;;;9.30;101822.00;;;;5050761;28;20229;-79
2022/03/03 02:02:48;;;;;;;11.25;6.90;;;;;9.30;101816.00;;;;5051216;28;20229;-78
2022/03/03 02:05:16;;;;;;;10.55;6.22;;;;;9.30;101818.00;;;;5050751;28;20218;-78
2022/03/03 02:07:43;;;;;;;9.85;6.75;;;;;9.20;101812.00;;;;5049367;28;20207;-79
2022/03/03 02:10:11;;;;;;;8.93;6.38;;;;;9.20;101812.00;;;;5050680;28;20211;-79
2022/03/03 02:12:39;;;;;;;10.85;7.32;;;;;9.20;101807.00;;;;5050183;28;20585;-78
2022/03/03 02:15:07;;;;;;;11.88;7.47;;;;;9.10;101812.00;;;;5049537;28;20200;-78
2022/03/03 02:17:34;;;;;;;10.13;7.30;;;;;9.10;101810.00;;;;5049849;28;20261;-79
2022/03/03 02:20:07;;;;;;;13.25;7.40;;;;;9.00;101806.00;;;;5050025;28;20596;-79
2022/03/03 02:22:35;;;;;;;12.05;7.07;;;;;9.00;101797.00;;;;5049820;28;20211;-78
2022/03/03 02:25:03;;;;;;;9.60;6.82;;;;;9.00;101803.00;;;;5049733;28;20298;-79
2022/03/03 02:27:31;;;;;;;10.65;6.95;;;;;9.00;101798.00;;;;5049979;28;20207;-79
2022/03/03 02:29:59;;;;;;;11.43;7.50;;;;;9.00;101791.00;;;;5049326;28;20230;-79
2022/03/03 02:32:27;;;;;;;10.63;6.78;;;;;9.00;101789.00;;;;5049668;28;20223;-79
2022/03/03 02:34:54;;;;;;;9.65;6.47;;;;;9.00;101797.00;;;;5049867;28;20199;-79
2022/03/03 02:37:24;;;;;;;10.38;6.85;;;;;8.90;101794.00;;;;5050550;28;20210;-79
2022/03/03 02:39:51;;;;;;;11.15;7.00;;;;;8.90;101794.00;;;;5050400;28;20542;-79
2022/03/03 02:42:19;;;;;;;10.52;7.22;;;;;8.90;101788.00;;;;5050321;28;20207;-80
2022/03/03 02:44:46;;;;;;;11.40;6.72;;;;;8.90;101792.00;;;;5049765;28;20703;-79
2022/03/03 02:47:13;;;;;;;9.85;6.50;;;;;8.90;101789.00;;;;5050055;28;20206;-79
2022/03/03 02:49:40;;;;;;;10.75;6.60;;;;;8.80;101791.00;;;;5049276;28;20191;-79
2022/03/03 02:52:08;;;;;;;10.82;6.25;;;;;8.80;101789.00;;;;5049780;28;20259;-79
2022/03/03 02:54:36;;;;;;;10.07;6.50;;;;;8.80;101792.00;;;;5050022;28;20211;-79
2022/03/03 02:59:49;;;;;;;10.90;6.15;;;;;8.70;101789.00;;;;5049349;28;20588;-79
2022/03/03 03:02:16;;;;;;;10.10;6.70;;;;;8.70;101779.00;;;;5049258;28;20495;-80
2022/03/03 03:04:43;;;;;;;10.00;6.30;;;;;8.60;101782.00;;;;5051999;28;20249;-79
2022/03/03 03:07:10;;;;;;;9.82;6.40;;;;;8.60;101779.00;;;;5063790;28;20198;-79
2022/03/03 03:09:39;;;;;;;10.75;6.97;;;;;8.50;101781.00;;;;5069971;28;20207;-79
2022/03/03 03:12:07;;;;;;;10.35;6.65;;;;;8.50;101781.00;;;;5069282;28;20236;-79
2022/03/03 03:14:34;;;;;;;10.48;6.90;;;;;8.50;101777.00;;;;5069093;28;20294;-79
2022/03/03 03:17:04;;;;;;;10.48;6.93;;;;;8.40;101771.00;;;;5049889;28;20200;-79
2022/03/03 03:19:31;;;;;;;10.48;6.80;;;;;8.40;101772.00;;;;5049132;28;20230;-79
2022/03/03 03:21:59;;;;;;;10.20;6.68;;;;;8.30;101764.00;;;;5049140;28;20196;-79
2022/03/03 03:24:27;;;;;;;10.13;6.53;;;;;8.30;101762.00;;;;5049236;28;20196;-79
2022/03/03 03:26:55;;;;;;;9.10;6.40;;;;;8.20;101766.00;;;;5049227;28;20207;-79
2022/03/03 03:29:22;;;;;;;10.93;7.47;;;;;8.20;101764.00;;;;5049550;28;20208;-79
2022/03/03 03:31:50;;;;;;;9.20;5.95;;;;;8.20;101760.00;;;;5049373;28;20203;-79
2022/03/03 03:34:17;;;;;;;9.55;6.80;;;;;8.10;101755.00;;;;5048380;28;20281;-79
2022/03/03 03:36:44;;;;;;;9.30;6.50;;;;;8.10;101758.00;;;;5048952;28;20198;-79
2022/03/03 03:39:11;;;;;;;10.15;6.80;;;;;8.00;101747.00;;;;5049506;28;20211;-79
2022/03/03 03:41:39;;;;;;;10.18;6.78;;;;;8.00;101746.00;;;;5048726;28;20211;-79
2022/03/03 03:44:07;;;;;;;11.13;6.80;;;;;7.90;101752.00;;;;5049321;28;20222;-79
2022/03/03 03:46:35;;;;;;;9.65;6.60;;;;;7.90;101746.00;;;;5048343;28;20199;-79
2022/03/03 03:49:02;;;;;;;9.90;6.50;;;;;7.90;101748.00;;;;5048573;28;20290;-79
2022/03/03 03:51:30;;;;;;;9.55;6.70;;;;;7.90;101755.00;;;;5049091;28;20219;-79
2022/03/03 03:53:57;;;;;;;10.95;6.78;;;;;7.80;101751.00;;;;5048730;28;20220;-79
2022/03/03 03:56:24;;;;;;;10.68;6.78;;;;;7.80;101753.00;;;;5048251;28;20664;-79
2022/03/03 03:58:51;;;;;;;11.73;7.50;;;;;7.80;101746.00;;;;5048884;28;20207;-79
2022/03/03 04:01:20;;;;;;;11.18;7.65;;;;;7.70;101744.00;;;;5048404;28;20211;-79
2022/03/03 04:03:48;;;;;;;11.10;7.10;;;;;7.70;101748.00;;;;5047778;28;20214;-79
2022/03/03 04:06:16;;;;;;;11.85;6.95;;;;;7.70;101742.00;;;;5048348;28;20689;-79
2022/03/03 04:08:43;;;;;;;11.13;6.55;;;;;7.70;101733.00;;;;5047946;28;20553;-79
2022/03/03 04:11:10;;;;;;;12.32;7.15;;;;;7.60;101740.00;;;;5048549;28;20333;-79
2022/03/03 04:13:37;;;;;;;13.25;7.50;;;;;7.60;101736.00;;;;5048176;28;20235;-79
2022/03/03 04:16:05;;;;;;;10.95;6.80;;;;;7.60;101731.00;;;;5045066;28;20204;-79
2022/03/03 04:18:34;;;;;;;10.77;6.90;;;;;7.50;101733.00;;;;5060733;28;20223;-79
2022/03/03 04:21:01;;;;;;;9.98;6.75;;;;;7.50;101719.00;;;;5068309;28;20199;-79
2022/03/03 04:23:28;;;;;;;10.00;6.53;;;;;7.50;101727.00;;;;5061895;28;20876;-79
2022/03/03 04:25:55;;;;;;;11.82;6.82;;;;;7.50;101717.00;;;;5048544;28;20199;-79
2022/03/03 04:28:22;;;;;;;11.25;7.07;;;;;7.50;101719.00;;;;5048813;28;20625;-79
2022/03/03 04:30:49;;;;;;;10.30;7.10;;;;;7.50;101722.00;;;;5047907;28;20215;-79
2022/03/03 04:33:17;;;;;;;11.05;7.15;;;;;7.40;101714.00;;;;5047693;28;20238;-79
2022/03/03 04:35:45;;;;;;;9.68;6.57;;;;;7.40;101719.00;;;;5048783;28;20195;-79
2022/03/03 04:38:12;;;;;;;11.40;6.78;;;;;7.40;101722.00;;;;5042934;28;20195;-79
2022/03/03 04:40:40;;;;;;;10.13;7.00;;;;;7.30;101719.00;;;;5035703;28;20203;-79
2022/03/03 04:43:08;;;;;;;10.35;6.75;;;;;7.30;101720.00;;;;5048142;28;20215;-79
2022/03/03 04:45:36;;;;;;;10.80;6.93;;;;;7.30;101719.00;;;;5048131;28;20204;-79
2022/03/03 04:48:03;;;;;;;10.52;6.38;;;;;7.30;101723.00;;;;5047954;28;20596;-79
2022/03/03 04:50:31;;;;;;;11.60;6.97;;;;;7.30;101722.00;;;;5047765;28;20192;-79
2022/03/03 04:53:00;;;;;;;9.95;6.55;;;;;7.20;101724.00;;;;5048035;28;20380;-79
2022/03/03 04:55:27;;;;;;;11.35;6.95;;;;;7.20;101728.00;;;;5048414;28;20210;-79
2022/03/03 04:57:54;;;;;;;10.15;6.43;;;;;7.20;101724.00;;;;5047469;28;20207;-79
2022/03/03 05:00:21;;;;;;;10.73;7.03;;;;;7.20;101721.00;;;;5048094;28;20230;-79
2022/03/03 05:02:49;;;;;;;11.55;7.20;;;;;7.10;101727.00;;;;5047951;28;20203;-79
2022/03/03 05:05:16;;;;;;;10.40;7.00;;;;;7.10;101724.00;;;;5034905;28;20212;-79
2022/03/03 05:07:43;;;;;;;12.25;7.30;;;;;7.10;101727.00;;;;5028232;28;20671;-78
2022/03/03 05:10:12;;;;;;;10.50;7.30;;;;;7.00;101732.00;;;;5027416;28;20200;-79
2022/03/03 05:12:39;;;;;;;11.25;7.32;;;;;7.00;101727.00;;;;5027862;28;20543;-79
2022/03/03 05:15:08;;;;;;;10.73;7.38;;;;;7.00;101724.00;;;;5039380;28;20219;-79
2022/03/03 05:17:35;;;;;;;10.15;6.60;;;;;7.00;101723.00;;;;5047196;28;20207;-78
2022/03/03 05:20:03;;;;;;;11.77;7.28;;;;;6.90;101723.00;;;;5048532;28;20271;-79
2022/03/03 05:22:30;;;;;;;12.05;7.25;;;;;6.90;101730.00;;;;5063425;28;20198;-79
2022/03/03 05:24:58;;;;;;;11.32;6.95;;;;;6.90;101719.00;;;;5051317;28;20199;-79
2022/03/03 05:27:26;;;;;;;9.25;6.10;;;;;6.90;101720.00;;;;5051552;28;20688;-79
2022/03/03 05:29:54;;;;;;;13.80;6.43;;;;;6.80;101715.00;;;;5051324;28;20195;-79
2022/03/03 05:32:21;;;;;;;9.10;6.63;;;;;6.80;101710.00;;;;5050472;28;20287;-78
2022/03/03 05:34:48;;;;;;;17.58;7.22;;;;;6.80;101723.00;;;;5051092;28;20277;-79
2022/03/03 05:37:24;;;;;;;12.40;7.25;;;;;6.70;101721.00;;;;5051166;28;20210;-79
2022/03/03 05:39:52;;;;;;;10.23;7.05;;;;;6.80;101715.00;;;;5050780;28;20237;-78
2022/03/03 05:42:20;;;;;;;10.15;6.63;;;;;6.80;101725.00;;;;5051129;28;20203;-78
2022/03/03 05:44:49;;;;;;;10.07;6.90;;;;;6.70;101724.00;;;;5050916;28;20708;-78
2022/03/03 05:47:17;;;;;;;11.63;6.35;;;;;6.70;101717.00;;;;5050509;28;20764;-79
2022/03/03 05:49:46;;;;;;;11.85;7.07;;;;;6.70;101717.00;;;;5051632;28;20207;-78
2022/03/03 05:52:14;;;;;;;10.18;6.35;;;;;6.70;101711.00;;;;5051226;28;20588;-78
2022/03/03 05:54:41;;;;;;;10.05;6.65;;;;;6.70;101712.00;;;;5050515;28;20322;-78
2022/03/03 05:57:17;;;;;;;10.15;6.38;;;;;6.60;101716.00;;;;5050545;28;20700;-78
2022/03/03 05:59:44;;;;;;;11.27;6.38;;;;;6.70;101708.00;;;;5051092;28;20199;-78
2022/03/03 06:02:14;;;;;;;11.05;6.28;;;;;6.60;101706.00;;;;5050316;28;20215;-78
2022/03/03 06:04:41;;;;;;;11.32;7.53;;;;;6.60;101713.00;;;;5049694;28;20211;-78
2022/03/03 06:07:10;;;;;;;10.52;7.13;;;;;6.60;101713.00;;;;5050501;28;20208;-78
2022/03/03 06:09:38;;;;;;;12.75;7.15;;;;;6.60;101708.00;;;;5050671;28;20195;-78
2022/03/03 06:12:11;;;;;;;10.90;6.75;;;;;6.60;101722.00;;;;5050433;28;20208;-78
2022/03/03 06:14:40;;;;;;;11.40;7.35;;;;;6.60;101717.00;;;;5050126;28;20231;-78
2022/03/03 06:17:08;;;;;;;8.45;6.20;;;;;6.60;101712.00;;;;5049774;28;20286;-78
2022/03/03 06:19:41;;;;;;;10.65;6.95;;;;;6.60;101720.00;;;;5050962;28;20235;-78
2022/03/03 06:22:10;;;;;;;10.93;7.65;;;;;6.60;101721.00;;;;5050324;28;20202;-78
2022/03/03 06:24:38;;;;;;;10.48;6.82;;;;;6.60;101718.00;;;;5049942;28;20250;-78
2022/03/03 06:27:05;;;;;;;8.90;6.40;;;;;6.60;101723.00;;;;5049927;28;20696;-78
2022/03/03 06:29:33;;;;;;;9.43;6.22;;;;;6.60;101725.00;;;;5050527;28;20245;-78
2022/03/03 06:32:00;;;;;;;17.63;7.63;;;;;6.60;101719.00;;;;5048289;28;20211;-79
2022/03/03 06:34:28;;;;;;;10.23;6.85;;;;;6.60;101723.00;;;;5062666;28;20220;-78
2022/03/03 06:36:56;;;;;;;11.63;6.80;;;;;6.60;101722.00;;;;5050528;28;20188;-78
2022/03/03 06:39:24;;;;;;;12.43;7.10;;;;;6.60;101723.00;;;;5050251;28;20207;-78
2022/03/03 06:41:51;;;;;;;9.98;6.85;;;;;6.60;101729.00;;;;5050255;28;20618;-78
2022/03/03 06:44:19;;;;;;;11.10;6.90;;;;;6.60;101727.00;;;;5049197;28;20689;-77
2022/03/03 06:46:46;;;;;;;10.30;6.93;;;;;6.60;101724.00;;;;5049601;28;20398;-77
2022/03/03 06:49:13;;;;;;;11.05;7.25;;;;;6.60;101732.00;;;;5050093;28;20210;-77
2022/03/03 06:51:42;;;;;;;9.60;6.65;;;;;6.60;101733.00;;;;5049629;28;20220;-77
2022/03/03 06:54:14;;;;;;;11.23;6.45;;;;;6.60;101735.00;;;;5049545;28;20223;-77
2022/03/03 06:56:47;;;;;;;11.73;7.18;;;;;6.60;101738.00;;;;5049047;28;20208;-77
2022/03/03 06:59:17;;;;;;;12.48;7.20;;;;;6.70;101736.00;;;;5049660;28;20295;-78
2022/03/03 07:01:46;;;;;;;12.93;7.05;;;;;6.70;101742.00;;;;5049859;28;20191;-77
2022/03/03 07:04:14;;;;;;;10.95;6.68;;;;;6.70;101746.00;;;;5046134;28;20200;-77
2022/03/03 07:06:42;;;;;;;10.07;6.70;;;;;6.70;101751.00;;;;5029979;28;20212;-77
2022/03/03 07:09:11;;;;;;;9.13;6.35;;;;;6.80;101751.00;;;;5029513;28;20235;-77
2022/03/03 07:11:39;;;;;;;10.50;6.85;;;;;6.80;101757.00;;;;5029504;28;20227;-77
2022/03/03 07:14:07;;;;;;;10.60;7.45;;;;;6.80;101759.00;;;;5039821;28;20625;-77
2022/03/03 07:16:41;;;;;;;11.32;7.63;;;;;6.80;101751.00;;;;5049497;28;20203;-77
2022/03/03 07:19:17;;;;;;;9.95;6.57;;;;;6.90;101756.00;;;;5048769;28;20235;-77
2022/03/03 07:22:03;;;;;;;11.70;7.55;;;;;6.90;101749.00;;;;5048860;28;20207;-77
2022/03/03 07:24:33;;;;;;;12.27;7.65;;;;;7.00;101741.00;;;;5049334;28;20286;-77
2022/03/03 07:27:04;;;;;;;11.93;7.93;;;;;7.10;101747.00;;;;5048679;28;20738;-77
2022/03/03 07:29:33;;;;;;;10.93;6.88;;;;;7.20;101755.00;;;;5049413;28;20199;-77
2022/03/03 07:32:05;;;;;;;11.23;7.28;;;;;7.20;101754.00;;;;5049012;28;20203;-77
2022/03/03 07:34:34;;;;;;;12.75;7.82;;;;;7.30;101752.00;;;;5049111;28;20230;-77
2022/03/03 07:37:06;;;;;;;11.85;8.15;;;;;7.30;101760.00;;;;5043401;28;20215;-77
2022/03/03 07:39:40;;;;;;;11.70;7.68;;;;;7.30;101753.00;;;;5048893;28;20254;-77
2022/03/03 07:42:10;;;;;;;13.48;8.15;;;;;7.50;101753.00;;;;5048554;28;20203;-77
2022/03/03 07:44:38;;;;;;;10.18;6.75;;;;;7.60;101755.00;;;;5060473;28;20195;-77
2022/03/03 07:47:06;;;;;;;11.38;7.53;;;;;7.60;101756.00;;;;5047927;28;20200;-77
2022/03/03 07:49:33;;;;;;;11.98;7.82;;;;;7.70;101760.00;;;;5048918;28;20740;-77
2022/03/03 07:52:02;;;;;;;10.55;6.93;;;;;7.80;101760.00;;;;5048186;28;20224;-77
2022/03/03 07:54:29;;;;;;;12.32;7.90;;;;;7.90;101770.00;;;;5048400;28;20579;-77
2022/03/03 07:56:59;;;;;;;13.35;7.97;;;;;8.00;101755.00;;;;5047998;28;20196;-77
2022/03/03 07:59:28;;;;;;;9.32;6.35;;;;;8.10;101758.00;;;;5048838;28;20199;-77
2022/03/03 08:01:58;;;;;;;10.52;6.95;;;;;8.20;101758.00;;;;5048516;28;20219;-77
2022/03/03 08:04:29;;;;;;;10.43;7.13;;;;;8.20;101754.00;;;;5047833;28;20196;-77
2022/03/03 08:07:04;;;;;;;9.80;6.95;;;;;8.30;101760.00;;;;5048415;28;20203;-77
2022/03/03 08:09:33;;;;;;;12.15;7.97;;;;;8.50;101767.00;;;;5048905;28;20560;-78
2022/03/03 08:12:05;;;;;;;12.27;7.85;;;;;8.60;101765.00;;;;5047863;28;20207;-78
2022/03/03 08:14:33;;;;;;;10.02;6.85;;;;;8.70;101766.00;;;;5048598;28;20231;-78
2022/03/03 08:17:01;;;;;;;11.07;7.65;;;;;8.80;101770.00;;;;5047738;28;20723;-78
2022/03/03 08:19:28;;;;;;;9.93;7.22;;;;;8.90;101772.00;;;;5048468;28;20230;-78
2022/03/03 08:21:55;;;;;;;11.50;7.28;;;;;9.10;101772.00;;;;5047851;28;20215;-78
2022/03/03 08:24:24;;;;;;;14.35;8.57;;;;;9.10;101767.00;;;;5048481;28;20628;-78
2022/03/03 08:26:54;;;;;;;11.00;7.55;;;;;9.30;101777.00;;;;5048470;28;20204;-78
2022/03/03 08:29:23;;;;;;;11.15;7.70;;;;;9.40;101775.00;;;;5048700;28;20195;-78
2022/03/03 08:31:54;;;;;;;10.52;7.35;;;;;9.50;101767.00;;;;5047164;28;20208;-78
2022/03/03 08:34:34;;;;;;;13.27;7.50;;;;;9.60;101761.00;;;;5048597;28;20224;-78
2022/03/03 08:37:09;;;;;;;12.05;7.93;;;;;9.70;101758.00;;;;5048394;28;20206;-78
2022/03/03 08:39:38;;;;;;;8.90;6.85;;;;;9.80;101765.00;;;;5048136;28;20199;-78
2022/03/03 08:42:09;;;;;;;11.05;7.47;;;;;9.90;101765.00;;;;5047767;28;20203;-78
2022/03/03 08:44:39;;;;;;;13.20;8.32;;;;;10.00;101768.00;;;;5047537;28;20286;-78
2022/03/03 08:47:07;;;;;;;9.55;6.95;;;;;10.20;101772.00;;;;5048229;28;20661;-78
2022/03/03 08:49:39;;;;;;;12.43;7.63;;;;;10.30;101770.00;;;;5047726;28;20203;-78
2022/03/03 08:52:09;;;;;;;9.82;6.80;;;;;10.40;101759.00;;;;5048106;28;20302;-78
2022/03/03 08:54:37;;;;;;;10.52;7.13;;;;;10.50;101765.00;;;;5051897;28;20302;-78
2022/03/03 08:57:04;;;;;;;11.50;7.25;;;;;10.60;101768.00;;;;5063004;28;20591;-78
2022/03/03 08:59:32;;;;;;;9.48;6.82;;;;;10.80;101768.00;;;;5052558;28;20199;-79
2022/03/03 09:02:01;;;;;;;12.57;7.28;;;;;10.90;101766.00;;;;5051364;28;20199;-79
2022/03/03 09:04:28;;;;;;;9.98;6.97;;;;;11.00;101758.00;;;;5049004;28;20636;-79
2022/03/03 09:06:55;;;;;;;10.82;7.18;;;;;11.10;101763.00;;;;5032126;28;20204;-79
2022/03/03 09:09:23;;;;;;;8.95;6.57;;;;;11.30;101769.00;;;;5031929;28;20197;-78
2022/03/03 09:11:50;;;;;;;10.80;7.40;;;;;11.40;101763.00;;;;5033000;28;20196;-79
2022/03/03 09:14:17;;;;;;;10.27;7.25;;;;;11.50;101769.00;;;;5051677;28;20223;-79
2022/03/03 09:16:45;;;;;;;10.73;6.78;;;;;11.60;101761.00;;;;5051660;28;20195;-79
2022/03/03 09:19:13;;;;;;;9.90;7.22;;;;;11.70;101758.00;;;;5051291;28;20228;-79
2022/03/03 09:21:41;;;;;;;11.50;6.85;;;;;11.90;101765.00;;;;5051893;28;20211;-79
2022/03/03 09:24:09;;;;;;;10.40;7.28;;;;;12.00;101769.00;;;;5050981;28;20254;-79
2022/03/03 09:26:36;;;;;;;9.60;6.78;;;;;12.10;101756.00;;;;5051094;28;20199;-80
2022/03/03 09:29:03;;;;;;;10.45;7.38;;;;;12.30;101767.00;;;;5051816;28;20602;-79
2022/03/03 09:31:31;;;;;;;10.23;6.53;;;;;12.40;101769.00;;;;5051655;28;20215;-79
2022/03/03 09:33:58;;;;;;;11.93;6.55;;;;;12.50;101761.00;;;;5050782;28;20207;-79
2022/03/03 09:36:26;;;;;;;9.90;6.45;;;;;12.60;101769.00;;;;5051463;28;20238;-79
2022/03/03 09:38:54;;;;;;;10.05;7.28;;;;;12.70;101763.00;;;;5051264;28;20204;-79
2022/03/03 09:41:21;;;;;;;11.57;7.25;;;;;12.90;101762.00;;;;5051460;28;20207;-79
2022/03/03 09:43:48;;;;;;;10.35;6.35;;;;;13.00;101760.00;;;;5051470;28;20775;-79
2022/03/03 09:46:15;;;;;;;9.02;6.38;;;;;13.20;101758.00;;;;5050277;28;21084;-79
2022/03/03 09:48:43;;;;;;;9.05;6.55;;;;;13.30;101747.00;;;;5051140;28;20203;-79
2022/03/03 09:51:10;;;;;;;9.68;6.40;;;;;13.40;101752.00;;;;5050974;28;20215;-79
2022/03/03 09:53:41;;;;;;;7.60;6.07;;;;;13.50;101747.00;;;;5050477;28;20196;-79
2022/03/03 09:56:08;;;;;;;8.98;5.97;;;;;13.70;101747.00;;;;5050811;28;20223;-79
2022/03/03 09:58:36;;;;;;;9.75;6.43;;;;;13.80;101757.00;;;;5050565;28;21215;-79
2022/03/03 10:01:03;;;;;;;8.80;6.63;;;;;14.00;101752.00;;;;5050843;28;20199;-79
2022/03/03 10:03:33;;;;;;;8.80;5.65;;;;;14.10;101752.00;;;;5050109;28;20214;-79
2022/03/03 10:06:01;;;;;;;9.32;6.22;;;;;14.20;101752.00;;;;5052827;28;20227;-79
2022/03/03 10:08:30;;;;;;;10.40;6.07;;;;;14.30;101746.00;;;;5069863;28;20577;-79
2022/03/03 10:11:01;;;;;;;7.35;5.78;;;;;14.40;101753.00;;;;5070822;28;20236;-80
2022/03/03 10:13:43;;;;;;;7.93;5.68;;;;;14.60;101758.00;;;;5070816;28;20628;-79
2022/03/03 10:16:11;;;;;;;8.65;5.63;;;;;14.70;101745.00;;;;5069447;28;20234;-79
2022/03/03 10:18:38;;;;;;;7.65;5.72;;;;;14.80;101737.00;;;;5052523;28;20254;-79
2022/03/03 10:21:05;;;;;;;7.55;5.50;;;;;14.90;101739.00;;;;5050425;28;20613;-79
2022/03/03 10:23:35;;;;;;;7.18;5.03;;;;;15.00;101744.00;;;;5050290;28;20666;-79
2022/03/03 10:26:07;;;;;;;9.65;6.47;;;;;15.10;101741.00;;;;5049235;28;20207;-79
2022/03/03 10:28:36;;;;;;;9.57;6.55;;;;;15.20;101742.00;;;;5050546;28;20199;-79
2022/03/03 10:31:06;;;;;;;7.90;6.00;;;;;15.40;101745.00;;;;5049625;28;20203;-79
2022/03/03 10:33:35;;;;;;;9.02;6.20;;;;;15.40;101756.00;;;;5050842;28;20207;-79
2022/03/03 10:36:11;;;;;;;7.47;5.80;;;;;15.50;101756.00;;;;5050024;28;20227;-79
2022/03/03 10:38:50;;;;;;;7.60;5.57;;;;;15.60;101751.00;;;;5049991;28;20195;-79
2022/03/03 10:41:37;;;;;;;8.65;6.57;;;;;15.70;101754.00;;;;5049855;28;20211;-79
2022/03/03 10:44:07;;;;;;;7.35;5.53;;;;;15.80;101749.00;;;;5049860;28;20644;-79
2022/03/03 10:46:36;;;;;;;8.55;5.72;;;;;15.90;101750.00;;;;5050061;28;20207;-79
2022/03/03 10:49:18;;;;;;;7.93;5.97;;;;;16.00;101747.00;;;;5049635;28;20206;-79
2022/03/03 10:51:45;;;;;;;12.88;6.75;;;;;16.10;101754.00;;;;5049807;28;20235;-79
2022/03/03 10:54:12;;;;;;;7.82;5.97;;;;;16.20;101751.00;;;;5049255;28;20207;-79
2022/03/03 10:56:49;;;;;;;6.53;4.90;;;;;16.20;101750.00;;;;5049470;28;20231;-79
2022/03/03 10:59:24;;;;;;;8.52;6.15;;;;;16.30;101751.00;;;;5049178;28;20514;-79
2022/03/03 11:01:52;;;;;;;8.50;6.28;;;;;16.50;101747.00;;;;5049558;28;20265;-80
2022/03/03 11:04:21;;;;;;;8.18;5.63;;;;;16.50;101748.00;;;;5048845;28;20204;-79
2022/03/03 11:06:52;;;;;;;6.82;5.45;;;;;16.60;101745.00;;;;5029843;28;20204;-79
2022/03/03 11:09:20;;;;;;;7.57;5.45;;;;;16.70;101752.00;;;;5029401;28;20231;-79
2022/03/03 11:11:49;;;;;;;8.02;5.07;;;;;16.70;101738.00;;;;5051617;28;20670;-79
2022/03/03 11:14:16;;;;;;;7.75;5.53;;;;;16.80;101741.00;;;;5069120;28;20950;-79
2022/03/03 11:16:44;;;;;;;6.50;5.32;;;;;16.90;101730.00;;;;5068436;28;20762;-79
2022/03/03 11:19:11;;;;;;;6.63;4.97;;;;;16.90;101740.00;;;;5069200;28;20364;-79
2022/03/03 11:21:39;;;;;;;6.57;5.13;;;;;17.00;101734.00;;;;5069424;28;20234;-79
2022/03/03 11:24:08;;;;;;;7.07;5.70;;;;;17.10;101733.00;;;;5069194;28;20209;-79
2022/03/03 11:26:42;;;;;;;8.20;5.95;;;;;17.10;101738.00;;;;5069005;28;20665;-79
2022/03/03 11:29:14;;;;;;;6.97;5.38;;;;;17.20;101731.00;;;;5056500;28;20207;-79
2022/03/03 11:31:42;;;;;;;6.47;5.20;;;;;17.30;101737.00;;;;5049080;28;20192;-79
2022/03/03 11:34:21;;;;;;;8.90;6.00;;;;;17.30;101733.00;;;;5048894;28;20200;-79
2022/03/03 11:36:48;;;;;;;6.25;5.18;;;;;17.40;101717.00;;;;5048382;28;20269;-79
2022/03/03 11:39:41;;;;;;;7.20;5.47;;;;;17.40;101725.00;;;;5049325;28;20204;-79
2022/03/03 11:42:23;;;;;;;7.22;5.80;;;;;17.40;101720.00;;;;5049233;28;20200;-79
2022/03/03 11:44:52;;;;;;;8.35;5.55;;;;;17.50;101715.00;;;;5048113;28;20672;-79
2022/03/03 11:47:22;;;;;;;6.60;5.22;;;;;17.60;101711.00;;;;5048213;28;20617;-79
2022/03/03 11:50:12;;;;;;;7.43;5.50;;;;;17.60;101718.00;;;;5048886;28;20298;-79
2022/03/03 11:52:41;;;;;;;6.00;5.03;;;;;17.70;101707.00;;;;5048577;28;20246;-79
2022/03/03 11:55:29;;;;;;;7.78;5.22;;;;;17.70;101705.00;;;;5048351;28;20265;-79
2022/03/03 11:58:01;;;;;;;7.80;4.80;;;;;17.80;101717.00;;;;5048245;28;20619;-79
2022/03/03 12:00:30;;;;;;;8.25;5.50;;;;;17.90;101713.00;;;;5048180;28;20203;-79
2022/03/03 12:03:02;;;;;;;6.80;4.88;;;;;17.90;101718.00;;;;5048164;28;20208;-79
2022/03/03 12:05:37;;;;;;;6.85;5.10;;;;;18.00;101710.00;;;;5047901;28;20210;-79
2022/03/03 12:08:07;;;;;;;9.50;5.63;;;;;18.10;101714.00;;;;5048129;28;20191;-79
2022/03/03 12:10:35;;;;;;;8.80;6.18;;;;;18.10;101712.00;;;;5048898;28;20471;-79
2022/03/03 12:13:26;;;;;;;8.95;6.18;;;;;18.10;101705.00;;;;5049013;28;20234;-79
2022/03/03 12:16:18;;;;;;;7.90;6.00;;;;;18.10;101710.00;;;;5054037;28;20222;-79
2022/03/03 12:18:46;;;;;;;7.43;5.50;;;;;18.20;101710.00;;;;5050203;28;20281;-79
2022/03/03 12:21:28;;;;;;;8.30;6.03;;;;;18.20;101709.00;;;;5048140;28;20203;-79